sensor_id;sensor_type;location;lat;lon;timestamp;temperature;humidity
22645;DHT22;11489;50.834;6.752;2023-06-10T00:02:21;18.40;64.00
22645;DHT22;11489;50.834;6.752;2023-06-10T00:04:46;18.40;63.40
22645;DHT22;11489;50.834;6.752;2023-06-10T00:07:13;18.40;63.50
22645;DHT22;11489;50.834;6.752;2023-06-10T00:09:38;18.40;63.60
22645;DHT22;11489;50.834;6.752;2023-06-10T00:12:05;18.30;63.70
22645;DHT22;11489;50.834;6.752;2023-06-10T00:14:32;18.30;63.90
22645;DHT22;11489;50.834;6.752;2023-06-10T00:16:58;18.20;64.00
22645;DHT22;11489;50.834;6.752;2023-06-10T00:19:25;18.20;64.20
22645;DHT22;11489;50.834;6.752;2023-06-10T00:21:51;18.20;64.30
22645;DHT22;11489;50.834;6.752;2023-06-10T00:24:17;18.20;64.50
22645;DHT22;11489;50.834;6.752;2023-06-10T00:26:43;18.10;64.50
22645;DHT22;11489;50.834;6.752;2023-06-10T00:29:09;18.10;64.70
22645;DHT22;11489;50.834;6.752;2023-06-10T00:31:36;18.00;64.70
22645;DHT22;11489;50.834;6.752;2023-06-10T00:34:02;18.00;64.90
22645;DHT22;11489;50.834;6.752;2023-06-10T00:36:28;18.00;65.00
22645;DHT22;11489;50.834;6.752;2023-06-10T00:38:53;18.00;65.30
22645;DHT22;11489;50.834;6.752;2023-06-10T00:41:19;18.00;65.30
22645;DHT22;11489;50.834;6.752;2023-06-10T00:43:45;18.00;65.40
22645;DHT22;11489;50.834;6.752;2023-06-10T00:46:11;18.00;65.40
22645;DHT22;11489;50.834;6.752;2023-06-10T00:48:38;18.00;65.50
22645;DHT22;11489;50.834;6.752;2023-06-10T00:51:05;17.90;65.50
22645;DHT22;11489;50.834;6.752;2023-06-10T00:53:32;17.90;65.60
22645;DHT22;11489;50.834;6.752;2023-06-10T00:55:58;17.90;65.60
22645;DHT22;11489;50.834;6.752;2023-06-10T00:58:24;17.90;65.70
22645;DHT22;11489;50.834;6.752;2023-06-10T01:00:51;17.90;65.80
22645;DHT22;11489;50.834;6.752;2023-06-10T01:03:17;17.90;65.90
22645;DHT22;11489;50.834;6.752;2023-06-10T01:05:44;17.80;65.90
22645;DHT22;11489;50.834;6.752;2023-06-10T01:08:35;17.80;66.00
22645;DHT22;11489;50.834;6.752;2023-06-10T01:11:08;17.70;66.70
22645;DHT22;11489;50.834;6.752;2023-06-10T01:13:41;17.70;66.40
22645;DHT22;11489;50.834;6.752;2023-06-10T01:16:07;17.60;66.40
22645;DHT22;11489;50.834;6.752;2023-06-10T01:18:33;17.50;66.50
22645;DHT22;11489;50.834;6.752;2023-06-10T01:20:58;17.50;66.70
22645;DHT22;11489;50.834;6.752;2023-06-10T01:23:24;17.40;66.90
22645;DHT22;11489;50.834;6.752;2023-06-10T01:26:06;17.30;67.10
22645;DHT22;11489;50.834;6.752;2023-06-10T01:28:54;17.30;67.90
22645;DHT22;11489;50.834;6.752;2023-06-10T01:31:45;17.20;68.10
22645;DHT22;11489;50.834;6.752;2023-06-10T01:34:16;17.10;68.20
22645;DHT22;11489;50.834;6.752;2023-06-10T01:36:45;17.00;67.80
22645;DHT22;11489;50.834;6.752;2023-06-10T01:39:11;17.00;68.20
22645;DHT22;11489;50.834;6.752;2023-06-10T01:41:39;16.90;68.20
22645;DHT22;11489;50.834;6.752;2023-06-10T01:44:05;16.80;68.30
22645;DHT22;11489;50.834;6.752;2023-06-10T01:46:31;16.70;68.50
22645;DHT22;11489;50.834;6.752;2023-06-10T01:48:57;16.70;68.80
22645;DHT22;11489;50.834;6.752;2023-06-10T01:51:22;16.60;68.90
22645;DHT22;11489;50.834;6.752;2023-06-10T01:53:48;16.50;69.00
22645;DHT22;11489;50.834;6.752;2023-06-10T01:56:14;16.50;69.20
22645;DHT22;11489;50.834;6.752;2023-06-10T01:58:45;16.40;69.40
22645;DHT22;11489;50.834;6.752;2023-06-10T02:01:11;16.40;69.70
22645;DHT22;11489;50.834;6.752;2023-06-10T02:03:37;16.30;69.90
22645;DHT22;11489;50.834;6.752;2023-06-10T02:06:03;16.30;70.10
22645;DHT22;11489;50.834;6.752;2023-06-10T02:08:28;16.20;70.20
22645;DHT22;11489;50.834;6.752;2023-06-10T02:10:54;16.10;70.30
22645;DHT22;11489;50.834;6.752;2023-06-10T02:13:20;16.00;70.40
22645;DHT22;11489;50.834;6.752;2023-06-10T02:15:45;16.00;70.40
22645;DHT22;11489;50.834;6.752;2023-06-10T02:18:11;15.90;70.50
22645;DHT22;11489;50.834;6.752;2023-06-10T02:20:38;15.80;70.50
22645;DHT22;11489;50.834;6.752;2023-06-10T02:23:03;15.80;70.70
22645;DHT22;11489;50.834;6.752;2023-06-10T02:25:29;15.60;70.80
22645;DHT22;11489;50.834;6.752;2023-06-10T02:27:55;15.60;71.00
22645;DHT22;11489;50.834;6.752;2023-06-10T02:30:21;15.50;71.10
22645;DHT22;11489;50.834;6.752;2023-06-10T02:32:46;15.40;71.30
22645;DHT22;11489;50.834;6.752;2023-06-10T02:35:16;15.40;71.50
22645;DHT22;11489;50.834;6.752;2023-06-10T02:37:43;15.30;71.80
22645;DHT22;11489;50.834;6.752;2023-06-10T02:40:09;15.20;71.80
22645;DHT22;11489;50.834;6.752;2023-06-10T02:42:36;15.10;72.00
22645;DHT22;11489;50.834;6.752;2023-06-10T02:45:02;15.00;72.20
22645;DHT22;11489;50.834;6.752;2023-06-10T02:47:27;15.00;72.40
22645;DHT22;11489;50.834;6.752;2023-06-10T02:49:53;14.90;72.70
22645;DHT22;11489;50.834;6.752;2023-06-10T02:52:19;14.90;72.80
22645;DHT22;11489;50.834;6.752;2023-06-10T02:54:46;14.70;72.90
22645;DHT22;11489;50.834;6.752;2023-06-10T02:57:11;14.70;73.10
22645;DHT22;11489;50.834;6.752;2023-06-10T02:59:37;14.60;73.40
22645;DHT22;11489;50.834;6.752;2023-06-10T03:02:03;14.60;73.60
22645;DHT22;11489;50.834;6.752;2023-06-10T03:04:29;14.50;73.70
22645;DHT22;11489;50.834;6.752;2023-06-10T03:06:56;14.50;74.00
22645;DHT22;11489;50.834;6.752;2023-06-10T03:09:21;14.40;74.20
22645;DHT22;11489;50.834;6.752;2023-06-10T03:11:47;14.40;74.50
22645;DHT22;11489;50.834;6.752;2023-06-10T03:14:12;14.30;74.60
22645;DHT22;11489;50.834;6.752;2023-06-10T03:16:38;14.30;74.80
22645;DHT22;11489;50.834;6.752;2023-06-10T03:19:08;14.30;74.90
22645;DHT22;11489;50.834;6.752;2023-06-10T03:21:37;14.20;75.00
22645;DHT22;11489;50.834;6.752;2023-06-10T03:24:03;14.10;75.40
22645;DHT22;11489;50.834;6.752;2023-06-10T03:26:48;14.10;75.40
22645;DHT22;11489;50.834;6.752;2023-06-10T03:40:09;14.00;76.30
22645;DHT22;11489;50.834;6.752;2023-06-10T03:43:54;14.00;77.90
22645;DHT22;11489;50.834;6.752;2023-06-10T03:47:34;14.10;78.00
22645;DHT22;11489;50.834;6.752;2023-06-10T03:51:18;14.20;78.40
22645;DHT22;11489;50.834;6.752;2023-06-10T03:58:00;14.40;78.60
22645;DHT22;11489;50.834;6.752;2023-06-10T04:05:11;14.60;78.40
22645;DHT22;11489;50.834;6.752;2023-06-10T04:13:26;15.10;79.10
22645;DHT22;11489;50.834;6.752;2023-06-10T04:24:11;16.10;78.90
22645;DHT22;11489;50.834;6.752;2023-06-10T04:33:57;17.20;77.90
22645;DHT22;11489;50.834;6.752;2023-06-10T04:52:39;17.80;74.30
22645;DHT22;11489;50.834;6.752;2023-06-10T04:56:24;17.80;74.40
22645;DHT22;11489;50.834;6.752;2023-06-10T05:00:29;17.80;74.10
22645;DHT22;11489;50.834;6.752;2023-06-10T05:03:19;17.70;74.20
22645;DHT22;11489;50.834;6.752;2023-06-10T05:06:48;17.70;74.40
22645;DHT22;11489;50.834;6.752;2023-06-10T05:10:17;17.70;74.30
22645;DHT22;11489;50.834;6.752;2023-06-10T05:17:17;17.60;74.80
22645;DHT22;11489;50.834;6.752;2023-06-10T05:27:59;17.70;74.80
22645;DHT22;11489;50.834;6.752;2023-06-10T05:30:50;17.70;74.90
22645;DHT22;11489;50.834;6.752;2023-06-10T05:40:47;18.00;75.30
22645;DHT22;11489;50.834;6.752;2023-06-10T05:43:58;18.10;75.40
22645;DHT22;11489;50.834;6.752;2023-06-10T05:47:09;18.20;75.20
22645;DHT22;11489;50.834;6.752;2023-06-10T05:57:35;18.50;75.00
22645;DHT22;11489;50.834;6.752;2023-06-10T06:08:16;19.00;74.80
22645;DHT22;11489;50.834;6.752;2023-06-10T06:26:32;20.10;74.10
22645;DHT22;11489;50.834;6.752;2023-06-10T06:28:58;20.40;75.30
22645;DHT22;11489;50.834;6.752;2023-06-10T06:31:23;20.50;75.00
22645;DHT22;11489;50.834;6.752;2023-06-10T06:33:49;20.70;74.70
22645;DHT22;11489;50.834;6.752;2023-06-10T06:36:15;20.90;74.60
22645;DHT22;11489;50.834;6.752;2023-06-10T06:38:40;21.10;74.20
22645;DHT22;11489;50.834;6.752;2023-06-10T06:41:06;21.30;73.70
22645;DHT22;11489;50.834;6.752;2023-06-10T06:43:32;21.50;73.10
22645;DHT22;11489;50.834;6.752;2023-06-10T06:45:58;21.60;72.30
22645;DHT22;11489;50.834;6.752;2023-06-10T06:48:24;21.80;71.90
22645;DHT22;11489;50.834;6.752;2023-06-10T06:50:50;22.00;71.40
22645;DHT22;11489;50.834;6.752;2023-06-10T06:53:15;22.10;71.00
22645;DHT22;11489;50.834;6.752;2023-06-10T06:55:41;22.20;70.60
22645;DHT22;11489;50.834;6.752;2023-06-10T06:58:07;22.40;70.10
22645;DHT22;11489;50.834;6.752;2023-06-10T07:00:32;22.50;69.70
22645;DHT22;11489;50.834;6.752;2023-06-10T07:02:58;22.70;69.20
22645;DHT22;11489;50.834;6.752;2023-06-10T07:05:24;22.90;68.90
22645;DHT22;11489;50.834;6.752;2023-06-10T07:07:54;23.00;68.20
22645;DHT22;11489;50.834;6.752;2023-06-10T07:10:24;23.10;67.70
22645;DHT22;11489;50.834;6.752;2023-06-10T07:12:51;23.30;66.80
22645;DHT22;11489;50.834;6.752;2023-06-10T07:15:16;23.40;67.00
22645;DHT22;11489;50.834;6.752;2023-06-10T07:17:42;23.50;66.60
22645;DHT22;11489;50.834;6.752;2023-06-10T07:20:08;23.60;66.10
22645;DHT22;11489;50.834;6.752;2023-06-10T07:22:34;23.80;65.80
22645;DHT22;11489;50.834;6.752;2023-06-10T07:24:59;23.80;65.50
22645;DHT22;11489;50.834;6.752;2023-06-10T07:27:25;23.90;65.90
22645;DHT22;11489;50.834;6.752;2023-06-10T07:29:51;24.00;64.80
22645;DHT22;11489;50.834;6.752;2023-06-10T07:32:17;24.10;64.30
22645;DHT22;11489;50.834;6.752;2023-06-10T07:34:43;24.20;64.00
22645;DHT22;11489;50.834;6.752;2023-06-10T07:37:09;24.40;63.70
22645;DHT22;11489;50.834;6.752;2023-06-10T07:39:35;24.40;63.70
22645;DHT22;11489;50.834;6.752;2023-06-10T07:42:01;24.70;64.20
22645;DHT22;11489;50.834;6.752;2023-06-10T07:44:26;24.80;64.30
22645;DHT22;11489;50.834;6.752;2023-06-10T07:46:52;25.10;64.30
22645;DHT22;11489;50.834;6.752;2023-06-10T07:49:18;25.30;64.10
22645;DHT22;11489;50.834;6.752;2023-06-10T07:51:43;25.70;63.80
22645;DHT22;11489;50.834;6.752;2023-06-10T07:54:09;25.90;63.70
22645;DHT22;11489;50.834;6.752;2023-06-10T07:56:35;26.20;62.80
22645;DHT22;11489;50.834;6.752;2023-06-10T07:59:01;26.40;62.30
22645;DHT22;11489;50.834;6.752;2023-06-10T08:01:27;26.60;61.40
22645;DHT22;11489;50.834;6.752;2023-06-10T08:03:52;26.90;60.60
22645;DHT22;11489;50.834;6.752;2023-06-10T08:06:18;27.00;59.60
22645;DHT22;11489;50.834;6.752;2023-06-10T08:08:44;27.20;58.90
22645;DHT22;11489;50.834;6.752;2023-06-10T08:11:11;27.30;58.50
22645;DHT22;11489;50.834;6.752;2023-06-10T08:13:37;27.40;58.00
22645;DHT22;11489;50.834;6.752;2023-06-10T08:16:03;27.40;57.40
22645;DHT22;11489;50.834;6.752;2023-06-10T08:18:29;27.40;57.10
22645;DHT22;11489;50.834;6.752;2023-06-10T08:20:55;27.50;57.70
22645;DHT22;11489;50.834;6.752;2023-06-10T08:23:21;27.60;57.30
22645;DHT22;11489;50.834;6.752;2023-06-10T08:25:46;27.80;57.00
22645;DHT22;11489;50.834;6.752;2023-06-10T08:28:12;28.00;56.80
22645;DHT22;11489;50.834;6.752;2023-06-10T08:30:38;28.20;56.60
22645;DHT22;11489;50.834;6.752;2023-06-10T08:33:03;28.50;56.30
22645;DHT22;11489;50.834;6.752;2023-06-10T08:35:29;28.80;56.10
22645;DHT22;11489;50.834;6.752;2023-06-10T08:37:55;29.00;55.80
22645;DHT22;11489;50.834;6.752;2023-06-10T08:40:21;29.20;55.20
22645;DHT22;11489;50.834;6.752;2023-06-10T08:43:08;29.40;54.10
22645;DHT22;11489;50.834;6.752;2023-06-10T08:45:37;29.40;51.30
22645;DHT22;11489;50.834;6.752;2023-06-10T08:48:06;29.40;52.50
22645;DHT22;11489;50.834;6.752;2023-06-10T08:50:34;29.40;53.20
22645;DHT22;11489;50.834;6.752;2023-06-10T08:53:02;29.50;52.80
22645;DHT22;11489;50.834;6.752;2023-06-10T08:55:32;29.60;52.80
22645;DHT22;11489;50.834;6.752;2023-06-10T08:58:02;29.70;52.20
22645;DHT22;11489;50.834;6.752;2023-06-10T09:00:28;29.80;52.00
22645;DHT22;11489;50.834;6.752;2023-06-10T09:02:55;29.90;52.60
22645;DHT22;11489;50.834;6.752;2023-06-10T09:05:21;30.00;51.70
22645;DHT22;11489;50.834;6.752;2023-06-10T09:07:52;30.10;51.20
22645;DHT22;11489;50.834;6.752;2023-06-10T09:10:17;30.10;50.20
22645;DHT22;11489;50.834;6.752;2023-06-10T09:12:43;30.20;51.20
22645;DHT22;11489;50.834;6.752;2023-06-10T09:15:10;30.30;51.20
22645;DHT22;11489;50.834;6.752;2023-06-10T09:17:38;30.40;50.80
22645;DHT22;11489;50.834;6.752;2023-06-10T09:20:07;30.50;50.80
22645;DHT22;11489;50.834;6.752;2023-06-10T09:22:33;30.60;50.40
22645;DHT22;11489;50.834;6.752;2023-06-10T09:25:06;30.60;50.60
22645;DHT22;11489;50.834;6.752;2023-06-10T09:30:10;30.90;49.40
22645;DHT22;11489;50.834;6.752;2023-06-10T09:32:39;30.90;49.80
22645;DHT22;11489;50.834;6.752;2023-06-10T09:35:09;31.00;49.60
22645;DHT22;11489;50.834;6.752;2023-06-10T09:37:38;31.20;49.60
22645;DHT22;11489;50.834;6.752;2023-06-10T09:40:05;31.30;49.50
22645;DHT22;11489;50.834;6.752;2023-06-10T09:42:37;31.50;49.90
22645;DHT22;11489;50.834;6.752;2023-06-10T09:45:04;31.60;49.00
22645;DHT22;11489;50.834;6.752;2023-06-10T09:47:30;31.70;47.90
22645;DHT22;11489;50.834;6.752;2023-06-10T09:49:55;31.60;48.10
22645;DHT22;11489;50.834;6.752;2023-06-10T09:52:26;31.60;48.20
22645;DHT22;11489;50.834;6.752;2023-06-10T09:54:52;31.60;47.70
22645;DHT22;11489;50.834;6.752;2023-06-10T09:57:19;31.70;48.70
22645;DHT22;11489;50.834;6.752;2023-06-10T09:59:46;31.80;48.50
22645;DHT22;11489;50.834;6.752;2023-06-10T10:02:16;32.00;48.20
22645;DHT22;11489;50.834;6.752;2023-06-10T10:04:43;32.10;47.40
22645;DHT22;11489;50.834;6.752;2023-06-10T10:07:10;32.20;47.60
22645;DHT22;11489;50.834;6.752;2023-06-10T10:09:40;32.20;47.30
22645;DHT22;11489;50.834;6.752;2023-06-10T10:12:10;32.30;46.50
22645;DHT22;11489;50.834;6.752;2023-06-10T10:14:37;32.30;47.10
22645;DHT22;11489;50.834;6.752;2023-06-10T10:17:04;32.30;47.00
22645;DHT22;11489;50.834;6.752;2023-06-10T10:19:32;32.30;46.70
22645;DHT22;11489;50.834;6.752;2023-06-10T10:22:07;32.30;46.80
22645;DHT22;11489;50.834;6.752;2023-06-10T10:24:54;32.40;45.10
22645;DHT22;11489;50.834;6.752;2023-06-10T10:27:33;32.30;45.50
22645;DHT22;11489;50.834;6.752;2023-06-10T10:30:01;32.40;46.00
22645;DHT22;11489;50.834;6.752;2023-06-10T10:32:38;32.40;46.40
22645;DHT22;11489;50.834;6.752;2023-06-10T10:35:12;32.50;44.90
22645;DHT22;11489;50.834;6.752;2023-06-10T10:37:40;32.60;45.30
22645;DHT22;11489;50.834;6.752;2023-06-10T10:40:07;32.60;45.20
22645;DHT22;11489;50.834;6.752;2023-06-10T10:42:34;32.50;44.90
22645;DHT22;11489;50.834;6.752;2023-06-10T10:45:00;32.50;44.80
22645;DHT22;11489;50.834;6.752;2023-06-10T10:47:28;32.40;43.70
22645;DHT22;11489;50.834;6.752;2023-06-10T10:49:56;32.40;43.40
22645;DHT22;11489;50.834;6.752;2023-06-10T10:52:28;32.20;43.80
22645;DHT22;11489;50.834;6.752;2023-06-10T10:55:12;32.20;44.60
22645;DHT22;11489;50.834;6.752;2023-06-10T10:57:38;32.20;44.70
22645;DHT22;11489;50.834;6.752;2023-06-10T11:00:05;32.40;45.00
22645;DHT22;11489;50.834;6.752;2023-06-10T11:04:57;32.90;45.60
22645;DHT22;11489;50.834;6.752;2023-06-10T11:07:24;33.20;45.30
22645;DHT22;11489;50.834;6.752;2023-06-10T11:10:01;33.50;44.60
22645;DHT22;11489;50.834;6.752;2023-06-10T11:15:12;34.10;42.30
22645;DHT22;11489;50.834;6.752;2023-06-10T11:18:11;34.30;44.00
22645;DHT22;11489;50.834;6.752;2023-06-10T11:20:56;34.40;42.10
22645;DHT22;11489;50.834;6.752;2023-06-10T11:26:14;34.70;41.30
22645;DHT22;11489;50.834;6.752;2023-06-10T11:31:23;34.50;42.10
22645;DHT22;11489;50.834;6.752;2023-06-10T11:34:03;34.50;40.90
22645;DHT22;11489;50.834;6.752;2023-06-10T11:36:31;34.40;41.10
22645;DHT22;11489;50.834;6.752;2023-06-10T11:38:59;34.50;42.30
22645;DHT22;11489;50.834;6.752;2023-06-10T11:41:26;34.60;42.50
22645;DHT22;11489;50.834;6.752;2023-06-10T11:43:56;34.60;42.20
22645;DHT22;11489;50.834;6.752;2023-06-10T11:46:22;34.80;42.40
22645;DHT22;11489;50.834;6.752;2023-06-10T11:48:56;34.90;42.40
22645;DHT22;11489;50.834;6.752;2023-06-10T11:51:25;35.10;40.90
22645;DHT22;11489;50.834;6.752;2023-06-10T11:53:51;35.30;41.20
22645;DHT22;11489;50.834;6.752;2023-06-10T11:56:21;35.30;40.40
22645;DHT22;11489;50.834;6.752;2023-06-10T11:59:02;35.30;39.90
22645;DHT22;11489;50.834;6.752;2023-06-10T12:01:35;35.20;40.10
22645;DHT22;11489;50.834;6.752;2023-06-10T12:04:07;35.30;40.50
22645;DHT22;11489;50.834;6.752;2023-06-10T12:09:20;35.30;38.20
22645;DHT22;11489;50.834;6.752;2023-06-10T12:11:49;35.20;38.80
22645;DHT22;11489;50.834;6.752;2023-06-10T12:14:15;35.00;38.70
22645;DHT22;11489;50.834;6.752;2023-06-10T12:16:48;34.80;38.80
22645;DHT22;11489;50.834;6.752;2023-06-10T12:19:14;34.60;37.90
22645;DHT22;11489;50.834;6.752;2023-06-10T12:21:40;34.30;38.30
22645;DHT22;11489;50.834;6.752;2023-06-10T12:24:10;34.10;38.20
22645;DHT22;11489;50.834;6.752;2023-06-10T12:26:41;33.80;38.30
22645;DHT22;11489;50.834;6.752;2023-06-10T12:29:25;33.60;38.70
22645;DHT22;11489;50.834;6.752;2023-06-10T12:31:55;33.50;38.50
22645;DHT22;11489;50.834;6.752;2023-06-10T12:34:28;33.50;39.70
22645;DHT22;11489;50.834;6.752;2023-06-10T12:36:54;33.60;39.30
22645;DHT22;11489;50.834;6.752;2023-06-10T12:39:20;33.80;40.40
22645;DHT22;11489;50.834;6.752;2023-06-10T12:41:51;34.00;40.40
22645;DHT22;11489;50.834;6.752;2023-06-10T12:44:16;34.20;39.20
22645;DHT22;11489;50.834;6.752;2023-06-10T12:46:42;34.40;39.70
22645;DHT22;11489;50.834;6.752;2023-06-10T12:49:08;34.50;39.20
22645;DHT22;11489;50.834;6.752;2023-06-10T12:51:43;34.60;38.60
22645;DHT22;11489;50.834;6.752;2023-06-10T12:54:09;34.50;37.00
22645;DHT22;11489;50.834;6.752;2023-06-10T12:56:35;34.50;37.80
22645;DHT22;11489;50.834;6.752;2023-06-10T12:59:01;34.40;38.00
22645;DHT22;11489;50.834;6.752;2023-06-10T13:01:28;34.50;38.30
22645;DHT22;11489;50.834;6.752;2023-06-10T13:03:53;34.50;37.90
22645;DHT22;11489;50.834;6.752;2023-06-10T13:06:19;34.60;37.70
22645;DHT22;11489;50.834;6.752;2023-06-10T13:08:45;34.70;37.80
22645;DHT22;11489;50.834;6.752;2023-06-10T13:11:12;34.70;37.60
22645;DHT22;11489;50.834;6.752;2023-06-10T13:13:38;34.80;37.10
22645;DHT22;11489;50.834;6.752;2023-06-10T13:16:04;34.80;36.20
22645;DHT22;11489;50.834;6.752;2023-06-10T13:18:30;34.80;36.20
22645;DHT22;11489;50.834;6.752;2023-06-10T13:20:56;34.60;35.50
22645;DHT22;11489;50.834;6.752;2023-06-10T13:23:21;34.50;35.90
22645;DHT22;11489;50.834;6.752;2023-06-10T13:25:47;34.50;36.20
22645;DHT22;11489;50.834;6.752;2023-06-10T13:28:13;34.50;36.40
22645;DHT22;11489;50.834;6.752;2023-06-10T13:30:38;34.60;36.50
22645;DHT22;11489;50.834;6.752;2023-06-10T13:33:05;34.80;36.70
22645;DHT22;11489;50.834;6.752;2023-06-10T13:35:31;34.90;36.60
22645;DHT22;11489;50.834;6.752;2023-06-10T13:37:57;35.00;36.40
22645;DHT22;11489;50.834;6.752;2023-06-10T13:40:22;35.20;36.20
22645;DHT22;11489;50.834;6.752;2023-06-10T13:42:48;35.40;36.40
22645;DHT22;11489;50.834;6.752;2023-06-10T13:45:16;35.50;36.40
22645;DHT22;11489;50.834;6.752;2023-06-10T13:47:42;35.60;36.00
22645;DHT22;11489;50.834;6.752;2023-06-10T13:50:08;35.60;35.10
22645;DHT22;11489;50.834;6.752;2023-06-10T13:52:34;35.50;34.60
22645;DHT22;11489;50.834;6.752;2023-06-10T13:55:00;35.20;34.30
22645;DHT22;11489;50.834;6.752;2023-06-10T13:57:25;34.90;34.60
22645;DHT22;11489;50.834;6.752;2023-06-10T13:59:51;34.70;35.10
22645;DHT22;11489;50.834;6.752;2023-06-10T14:02:17;34.60;35.10
22645;DHT22;11489;50.834;6.752;2023-06-10T14:04:42;34.50;34.60
22645;DHT22;11489;50.834;6.752;2023-06-10T14:07:08;34.40;34.60
22645;DHT22;11489;50.834;6.752;2023-06-10T14:09:34;34.30;34.80
22645;DHT22;11489;50.834;6.752;2023-06-10T14:11:59;34.20;35.00
22645;DHT22;11489;50.834;6.752;2023-06-10T14:14:25;34.30;35.40
22645;DHT22;11489;50.834;6.752;2023-06-10T14:16:51;34.50;35.70
22645;DHT22;11489;50.834;6.752;2023-06-10T14:19:16;34.80;35.70
22645;DHT22;11489;50.834;6.752;2023-06-10T14:21:42;35.10;36.00
22645;DHT22;11489;50.834;6.752;2023-06-10T14:24:08;35.30;35.20
22645;DHT22;11489;50.834;6.752;2023-06-10T14:26:33;35.50;34.70
22645;DHT22;11489;50.834;6.752;2023-06-10T14:28:59;35.70;34.60
22645;DHT22;11489;50.834;6.752;2023-06-10T14:31:24;35.80;34.50
22645;DHT22;11489;50.834;6.752;2023-06-10T14:33:50;35.90;34.40
22645;DHT22;11489;50.834;6.752;2023-06-10T14:36:16;36.00;34.00
22645;DHT22;11489;50.834;6.752;2023-06-10T14:38:42;36.10;33.80
22645;DHT22;11489;50.834;6.752;2023-06-10T14:41:07;36.20;33.90
22645;DHT22;11489;50.834;6.752;2023-06-10T14:43:33;36.30;34.00
22645;DHT22;11489;50.834;6.752;2023-06-10T14:45:59;36.40;33.80
22645;DHT22;11489;50.834;6.752;2023-06-10T14:48:24;36.50;34.00
22645;DHT22;11489;50.834;6.752;2023-06-10T14:50:50;36.50;33.20
22645;DHT22;11489;50.834;6.752;2023-06-10T14:53:20;36.40;32.80
22645;DHT22;11489;50.834;6.752;2023-06-10T14:55:46;36.30;32.50
22645;DHT22;11489;50.834;6.752;2023-06-10T14:58:12;36.20;32.50
22645;DHT22;11489;50.834;6.752;2023-06-10T15:00:37;36.00;32.60
22645;DHT22;11489;50.834;6.752;2023-06-10T15:03:03;35.90;32.80
22645;DHT22;11489;50.834;6.752;2023-06-10T15:05:29;35.90;32.80
22645;DHT22;11489;50.834;6.752;2023-06-10T15:07:54;35.80;32.80
22645;DHT22;11489;50.834;6.752;2023-06-10T15:10:20;35.70;32.90
22645;DHT22;11489;50.834;6.752;2023-06-10T15:12:47;35.60;33.00
22645;DHT22;11489;50.834;6.752;2023-06-10T15:15:13;35.60;33.10
22645;DHT22;11489;50.834;6.752;2023-06-10T15:17:39;35.60;33.00
22645;DHT22;11489;50.834;6.752;2023-06-10T15:20:05;35.60;33.20
22645;DHT22;11489;50.834;6.752;2023-06-10T15:22:31;35.50;33.00
22645;DHT22;11489;50.834;6.752;2023-06-10T15:24:56;35.40;32.60
22645;DHT22;11489;50.834;6.752;2023-06-10T15:27:23;35.10;31.80
22645;DHT22;11489;50.834;6.752;2023-06-10T15:29:49;34.70;31.60
22645;DHT22;11489;50.834;6.752;2023-06-10T15:32:14;34.30;32.00
22645;DHT22;11489;50.834;6.752;2023-06-10T15:34:40;33.80;32.40
22645;DHT22;11489;50.834;6.752;2023-06-10T15:37:06;33.50;32.70
22645;DHT22;11489;50.834;6.752;2023-06-10T15:39:31;33.30;33.30
22645;DHT22;11489;50.834;6.752;2023-06-10T15:41:57;33.10;33.70
22645;DHT22;11489;50.834;6.752;2023-06-10T15:44:23;33.00;34.10
22645;DHT22;11489;50.834;6.752;2023-06-10T15:46:48;33.00;34.10
22645;DHT22;11489;50.834;6.752;2023-06-10T15:49:15;33.00;34.20
22645;DHT22;11489;50.834;6.752;2023-06-10T15:51:41;33.10;34.30
22645;DHT22;11489;50.834;6.752;2023-06-10T15:54:07;33.10;34.20
22645;DHT22;11489;50.834;6.752;2023-06-10T15:56:32;33.10;34.40
22645;DHT22;11489;50.834;6.752;2023-06-10T15:58:58;33.20;34.70
22645;DHT22;11489;50.834;6.752;2023-06-10T16:01:24;33.30;34.60
22645;DHT22;11489;50.834;6.752;2023-06-10T16:03:49;33.40;34.50
22645;DHT22;11489;50.834;6.752;2023-06-10T16:06:15;33.50;34.10
22645;DHT22;11489;50.834;6.752;2023-06-10T16:08:41;33.50;33.50
22645;DHT22;11489;50.834;6.752;2023-06-10T16:11:06;33.50;33.70
22645;DHT22;11489;50.834;6.752;2023-06-10T16:13:33;33.40;32.50
22645;DHT22;11489;50.834;6.752;2023-06-10T16:15:59;33.20;32.10
22645;DHT22;11489;50.834;6.752;2023-06-10T16:18:25;33.10;32.00
22645;DHT22;11489;50.834;6.752;2023-06-10T16:20:50;32.90;32.10
22645;DHT22;11489;50.834;6.752;2023-06-10T16:23:16;32.80;32.70
22645;DHT22;11489;50.834;6.752;2023-06-10T16:25:42;32.70;32.90
22645;DHT22;11489;50.834;6.752;2023-06-10T16:28:07;32.70;33.20
22645;DHT22;11489;50.834;6.752;2023-06-10T16:30:33;32.60;33.30
22645;DHT22;11489;50.834;6.752;2023-06-10T16:32:59;32.60;33.40
22645;DHT22;11489;50.834;6.752;2023-06-10T16:35:25;32.60;33.70
22645;DHT22;11489;50.834;6.752;2023-06-10T16:37:51;32.70;33.90
22645;DHT22;11489;50.834;6.752;2023-06-10T16:40:17;32.90;33.90
22645;DHT22;11489;50.834;6.752;2023-06-10T16:42:42;33.00;33.70
22645;DHT22;11489;50.834;6.752;2023-06-10T16:45:08;33.00;33.60
22645;DHT22;11489;50.834;6.752;2023-06-10T16:47:35;33.00;33.50
22645;DHT22;11489;50.834;6.752;2023-06-10T16:50:01;32.80;33.30
22645;DHT22;11489;50.834;6.752;2023-06-10T16:52:27;32.60;33.30
22645;DHT22;11489;50.834;6.752;2023-06-10T16:54:52;32.30;33.10
22645;DHT22;11489;50.834;6.752;2023-06-10T16:57:18;32.10;33.20
22645;DHT22;11489;50.834;6.752;2023-06-10T16:59:44;31.70;33.10
22645;DHT22;11489;50.834;6.752;2023-06-10T17:02:09;31.50;33.10
22645;DHT22;11489;50.834;6.752;2023-06-10T17:04:35;31.20;33.40
22645;DHT22;11489;50.834;6.752;2023-06-10T17:07:01;30.90;33.70
22645;DHT22;11489;50.834;6.752;2023-06-10T17:09:26;30.70;34.10
22645;DHT22;11489;50.834;6.752;2023-06-10T17:11:52;30.50;34.40
22645;DHT22;11489;50.834;6.752;2023-06-10T17:14:18;30.30;34.60
22645;DHT22;11489;50.834;6.752;2023-06-10T17:16:44;30.20;35.10
22645;DHT22;11489;50.834;6.752;2023-06-10T17:19:10;30.20;35.20
22645;DHT22;11489;50.834;6.752;2023-06-10T17:21:36;30.10;35.00
22645;DHT22;11489;50.834;6.752;2023-06-10T17:24:02;30.10;35.30
22645;DHT22;11489;50.834;6.752;2023-06-10T17:26:28;30.00;35.40
22645;DHT22;11489;50.834;6.752;2023-06-10T17:28:54;29.90;35.50
22645;DHT22;11489;50.834;6.752;2023-06-10T17:31:19;29.90;35.50
22645;DHT22;11489;50.834;6.752;2023-06-10T17:33:45;29.90;35.50
22645;DHT22;11489;50.834;6.752;2023-06-10T17:36:11;29.80;35.60
22645;DHT22;11489;50.834;6.752;2023-06-10T17:38:36;29.80;35.70
22645;DHT22;11489;50.834;6.752;2023-06-10T17:41:02;29.80;35.70
22645;DHT22;11489;50.834;6.752;2023-06-10T17:43:28;29.80;35.90
22645;DHT22;11489;50.834;6.752;2023-06-10T17:45:54;29.80;36.00
22645;DHT22;11489;50.834;6.752;2023-06-10T17:48:23;29.80;36.00